Minto, Canada
Current Conditions -  °F | °C
As of 12:00 PM on Thursday 23 Oct 2014 (Local Time) from CYBR Reporting Station
Broken Clouds Broken Clouds  
Wind Chill: 52°   Ceiling: 20000
Heat Index: 52°   Visibility: 15mi
Dew Point: 41°   Wind: 9mph
Humidity: 67%   Direction: 250°WSW
Pressure: 29.79"   Gusts: NA
Location:  49.4°N, 100.02°W
Report Text: CYBR 231700Z 25008KT 15SM BKN200 11/05 A2979 RMK CI7 SLP096
Loading
Personal Weather Stations






























Interactive Weather Map
Tropical Storm Tracking
New forecast layout! Learn more

10-Day Weather Forecast

Advertisements
Track Severe Weather on mobile